sensor_id;sensor_type;location;lat;lon;timestamp;pressure;altitude;pressure_sealevel;temperature;humidity
10064;BME280;5071;52.360;13.134;2024-02-26T00:01:19;99292.13;;;-1.37;100.00
10064;BME280;5071;52.360;13.134;2024-02-26T00:06:23;99291.81;;;-1.58;100.00
10064;BME280;5071;52.360;13.134;2024-02-26T00:11:25;99288.34;;;-1.60;100.00
10064;BME280;5071;52.360;13.134;2024-02-26T00:16:27;99285.00;;;-1.50;100.00
10064;BME280;5071;52.360;13.134;2024-02-26T00:21:31;99277.94;;;-1.59;100.00
10064;BME280;5071;52.360;13.134;2024-02-26T00:26:33;99276.88;;;-1.76;100.00
10064;BME280;5071;52.360;13.134;2024-02-26T00:31:36;99274.91;;;-1.92;100.00
10064;BME280;5071;52.360;13.134;2024-02-26T00:36:39;99280.28;;;-1.80;100.00
10064;BME280;5071;52.360;13.134;2024-02-26T00:41:41;99267.38;;;-1.71;100.00
10064;BME280;5071;52.360;13.134;2024-02-26T00:46:43;99269.84;;;-1.82;100.00
10064;BME280;5071;52.360;13.134;2024-02-26T00:51:47;99266.69;;;-1.59;100.00
10064;BME280;5071;52.360;13.134;2024-02-26T00:56:49;99267.38;;;-1.71;100.00
10064;BME280;5071;52.360;13.134;2024-02-26T01:01:51;99256.66;;;-1.97;100.00
10064;BME280;5071;52.360;13.134;2024-02-26T01:06:54;99260.72;;;-2.15;100.00
10064;BME280;5071;52.360;13.134;2024-02-26T01:11:56;99252.25;;;-2.00;100.00
10064;BME280;5071;52.360;13.134;2024-02-26T01:16:58;99251.28;;;-2.08;100.00
10064;BME280;5071;52.360;13.134;2024-02-26T01:22:02;99243.50;;;-2.08;100.00
10064;BME280;5071;52.360;13.134;2024-02-26T01:27:04;99246.41;;;-1.85;100.00
10064;BME280;5071;52.360;13.134;2024-02-26T01:32:06;99242.81;;;-1.94;100.00
10064;BME280;5071;52.360;13.134;2024-02-26T01:37:09;99255.31;;;-2.28;100.00
10064;BME280;5071;52.360;13.134;2024-02-26T01:42:11;99241.66;;;-2.15;100.00
10064;BME280;5071;52.360;13.134;2024-02-26T01:47:13;99247.00;;;-2.03;100.00
10064;BME280;5071;52.360;13.134;2024-02-26T01:52:17;99250.09;;;-2.30;100.00
10064;BME280;5071;52.360;13.134;2024-02-26T01:57:19;99249.94;;;-2.41;100.00
10064;BME280;5071;52.360;13.134;2024-02-26T02:02:22;99249.78;;;-2.50;100.00
10064;BME280;5071;52.360;13.134;2024-02-26T02:07:26;99238.97;;;-2.21;100.00
10064;BME280;5071;52.360;13.134;2024-02-26T02:12:28;99244.31;;;-2.12;100.00
10064;BME280;5071;52.360;13.134;2024-02-26T02:17:30;99243.03;;;-2.40;100.00
10064;BME280;5071;52.360;13.134;2024-02-26T02:22:34;99241.31;;;-2.37;100.00
10064;BME280;5071;52.360;13.134;2024-02-26T02:27:36;99251.59;;;-2.46;100.00
10064;BME280;5071;52.360;13.134;2024-02-26T02:32:40;99253.41;;;-2.39;100.00
10064;BME280;5071;52.360;13.134;2024-02-26T02:37:44;99258.63;;;-2.39;100.00
10064;BME280;5071;52.360;13.134;2024-02-26T02:42:46;99259.94;;;-2.65;100.00
10064;BME280;5071;52.360;13.134;2024-02-26T02:47:48;99257.13;;;-2.78;100.00
10064;BME280;5071;52.360;13.134;2024-02-26T02:52:51;99253.53;;;-2.32;100.00
10064;BME280;5071;52.360;13.134;2024-02-26T02:57:53;99248.34;;;-2.32;100.00
10064;BME280;5071;52.360;13.134;2024-02-26T03:02:55;99250.81;;;-2.39;100.00
10064;BME280;5071;52.360;13.134;2024-02-26T03:07:59;99248.84;;;-2.55;100.00
10064;BME280;5071;52.360;13.134;2024-02-26T03:13:01;99250.84;;;-2.90;100.00
10064;BME280;5071;52.360;13.134;2024-02-26T03:18:03;99250.81;;;-2.39;100.00
10064;BME280;5071;52.360;13.134;2024-02-26T03:23:07;99254.28;;;-2.40;100.00
10064;BME280;5071;52.360;13.134;2024-02-26T03:28:09;99248.13;;;-2.45;100.00
10064;BME280;5071;52.360;13.134;2024-02-26T03:33:11;99253.34;;;-2.45;100.00
10064;BME280;5071;52.360;13.134;2024-02-26T03:38:14;99256.94;;;-2.35;100.00
10064;BME280;5071;52.360;13.134;2024-02-26T03:43:16;99266.88;;;-2.64;100.00
10064;BME280;5071;52.360;13.134;2024-02-26T03:48:18;99266.56;;;-2.83;100.00
10064;BME280;5071;52.360;13.134;2024-02-26T03:53:22;99264.94;;;-2.78;100.00
10064;BME280;5071;52.360;13.134;2024-02-26T03:58:24;99264.59;;;-2.46;100.00
10064;BME280;5071;52.360;13.134;2024-02-26T04:03:26;99272.06;;;-2.64;100.00
10064;BME280;5071;52.360;13.134;2024-02-26T04:08:30;99264.47;;;-2.52;100.00
10064;BME280;5071;52.360;13.134;2024-02-26T04:13:32;99272.50;;;-2.37;100.00
10064;BME280;5071;52.360;13.134;2024-02-26T04:18:34;99271.34;;;-2.57;100.00
10064;BME280;5071;52.360;13.134;2024-02-26T04:23:38;99272.50;;;-2.37;100.00
10064;BME280;5071;52.360;13.134;2024-02-26T04:28:40;99285.34;;;-2.47;100.00
10064;BME280;5071;52.360;13.134;2024-02-26T04:33:42;99291.47;;;-2.44;100.00
10064;BME280;5071;52.360;13.134;2024-02-26T04:38:45;99293.03;;;-2.52;100.00
10064;BME280;5071;52.360;13.134;2024-02-26T04:43:48;99296.91;;;-2.28;100.00
10064;BME280;5071;52.360;13.134;2024-02-26T04:48:49;99302.06;;;-2.30;100.00
10064;BME280;5071;52.360;13.134;2024-02-26T04:53:54;99301.03;;;-2.41;100.00
10064;BME280;5071;52.360;13.134;2024-02-26T04:58:56;99307.19;;;-2.36;100.00
10064;BME280;5071;52.360;13.134;2024-02-26T05:03:58;99325.38;;;-2.36;100.00
10064;BME280;5071;52.360;13.134;2024-02-26T05:09:02;99325.97;;;-2.51;100.00
10064;BME280;5071;52.360;13.134;2024-02-26T05:14:04;99327.06;;;-2.37;100.00
10064;BME280;5071;52.360;13.134;2024-02-26T05:19:06;99329.53;;;-2.46;100.00
10064;BME280;5071;52.360;13.134;2024-02-26T05:24:09;99319.25;;;-2.40;100.00
10064;BME280;5071;52.360;13.134;2024-02-26T05:29:12;99318.59;;;-2.26;100.00
10064;BME280;5071;52.360;13.134;2024-02-26T05:34:14;99314.28;;;-2.24;100.00
10064;BME280;5071;52.360;13.134;2024-02-26T05:39:17;99326.13;;;-2.42;100.00
10064;BME280;5071;52.360;13.134;2024-02-26T05:44:22;99324.47;;;-2.37;100.00
10064;BME280;5071;52.360;13.134;2024-02-26T05:49:24;99335.97;;;-2.22;100.00
10064;BME280;5071;52.360;13.134;2024-02-26T05:54:28;99335.31;;;-2.09;100.00
10064;BME280;5071;52.360;13.134;2024-02-26T05:59:30;99338.94;;;-2.01;100.00
10064;BME280;5071;52.360;13.134;2024-02-26T06:04:32;99344.81;;;-2.11;100.00
10064;BME280;5071;52.360;13.134;2024-02-26T06:09:36;99342.22;;;-2.11;100.00
10064;BME280;5071;52.360;13.134;2024-02-26T06:14:38;99351.16;;;-1.93;100.00
10064;BME280;5071;52.360;13.134;2024-02-26T06:19:40;99361.59;;;-1.90;100.00
10064;BME280;5071;52.360;13.134;2024-02-26T06:24:43;99365.25;;;-1.79;100.00
10064;BME280;5071;52.360;13.134;2024-02-26T06:29:45;99367.03;;;-1.75;100.00
10064;BME280;5071;52.360;13.134;2024-02-26T06:34:47;99374.28;;;-1.52;100.00
10064;BME280;5071;52.360;13.134;2024-02-26T06:39:51;99378.66;;;-1.51;100.00
10064;BME280;5071;52.360;13.134;2024-02-26T06:44:53;99377.16;;;-1.34;100.00
10064;BME280;5071;52.360;13.134;2024-02-26T06:49:55;99381.59;;;-1.27;100.00
10064;BME280;5071;52.360;13.134;2024-02-26T06:54:58;99390.34;;;-1.22;100.00
10064;BME280;5071;52.360;13.134;2024-02-26T07:00:00;99395.88;;;-0.94;100.00
10064;BME280;5071;52.360;13.134;2024-02-26T07:05:03;99403.03;;;-0.77;100.00
10064;BME280;5071;52.360;13.134;2024-02-26T07:10:07;99412.13;;;-0.40;100.00
10064;BME280;5071;52.360;13.134;2024-02-26T07:15:09;99405.03;;;0.48;100.00
10064;BME280;5071;52.360;13.134;2024-02-26T07:20:13;99402.59;;;0.72;100.00
10064;BME280;5071;52.360;13.134;2024-02-26T07:25:17;99407.91;;;0.91;100.00
10064;BME280;5071;52.360;13.134;2024-02-26T07:30:19;99400.28;;;1.51;100.00
10064;BME280;5071;52.360;13.134;2024-02-26T07:35:21;99402.09;;;1.87;100.00
10064;BME280;5071;52.360;13.134;2024-02-26T07:40:24;99391.66;;;2.09;100.00
10064;BME280;5071;52.360;13.134;2024-02-26T07:45:26;99392.50;;;2.28;100.00
10064;BME280;5071;52.360;13.134;2024-02-26T07:50:28;99385.50;;;2.50;100.00
10064;BME280;5071;52.360;13.134;2024-02-26T07:55:31;99402.94;;;2.72;100.00
10064;BME280;5071;52.360;13.134;2024-02-26T08:00:33;99402.00;;;2.89;100.00
10064;BME280;5071;52.360;13.134;2024-02-26T08:05:35;99397.53;;;3.19;100.00
10064;BME280;5071;52.360;13.134;2024-02-26T08:10:39;99403.63;;;3.28;100.00
10064;BME280;5071;52.360;13.134;2024-02-26T08:15:41;99402.66;;;3.49;100.00
10064;BME280;5071;52.360;13.134;2024-02-26T08:20:43;99409.47;;;3.78;100.00
10064;BME280;5071;52.360;13.134;2024-02-26T08:25:47;99414.66;;;3.91;100.00
10064;BME280;5071;52.360;13.134;2024-02-26T08:30:49;99408.16;;;4.35;100.00
10064;BME280;5071;52.360;13.134;2024-02-26T08:35:51;99408.91;;;4.49;100.00
10064;BME280;5071;52.360;13.134;2024-02-26T08:40:54;99407.72;;;4.81;100.00
10064;BME280;5071;52.360;13.134;2024-02-26T08:45:56;99400.59;;;4.94;100.00
10064;BME280;5071;52.360;13.134;2024-02-26T08:50:58;99399.16;;;5.39;100.00
10064;BME280;5071;52.360;13.134;2024-02-26T08:56:02;99400.47;;;5.71;98.77
10064;BME280;5071;52.360;13.134;2024-02-26T09:01:04;99407.28;;;5.84;98.25
10064;BME280;5071;52.360;13.134;2024-02-26T09:06:06;99404.91;;;5.68;98.86
10064;BME280;5071;52.360;13.134;2024-02-26T09:11:10;99412.72;;;5.72;99.19
10064;BME280;5071;52.360;13.134;2024-02-26T09:16:12;99413.91;;;6.13;96.85
10064;BME280;5071;52.360;13.134;2024-02-26T09:21:14;99429.56;;;6.24;97.05
10064;BME280;5071;52.360;13.134;2024-02-26T09:26:18;99420.50;;;6.89;92.99
10064;BME280;5071;52.360;13.134;2024-02-26T09:31:20;99412.56;;;6.90;91.54
10064;BME280;5071;52.360;13.134;2024-02-26T09:36:22;99419.13;;;7.16;91.12
10064;BME280;5071;52.360;13.134;2024-02-26T09:41:28;99416.69;;;7.49;90.14
10064;BME280;5071;52.360;13.134;2024-02-26T09:46:30;99414.16;;;7.85;87.19
10064;BME280;5071;52.360;13.134;2024-02-26T09:51:32;99420.59;;;8.10;86.33
10064;BME280;5071;52.360;13.134;2024-02-26T09:56:35;99420.63;;;8.46;84.96
10064;BME280;5071;52.360;13.134;2024-02-26T10:01:47;99418.81;;;8.84;83.80
10064;BME280;5071;52.360;13.134;2024-02-26T10:06:50;99426.22;;;9.03;80.96
10064;BME280;5071;52.360;13.134;2024-02-26T10:11:55;99434.34;;;8.97;81.72
10064;BME280;5071;52.360;13.134;2024-02-26T10:16:57;99427.84;;;9.40;78.16
10064;BME280;5071;52.360;13.134;2024-02-26T10:22:01;99434.50;;;10.12;75.14
10064;BME280;5071;52.360;13.134;2024-02-26T10:27:04;99433.22;;;12.00;66.65
10064;BME280;5071;52.360;13.134;2024-02-26T10:32:07;99439.16;;;11.60;66.38
10064;BME280;5071;52.360;13.134;2024-02-26T10:37:10;99430.28;;;11.84;67.06
10064;BME280;5071;52.360;13.134;2024-02-26T10:42:14;99434.00;;;12.48;64.16
10064;BME280;5071;52.360;13.134;2024-02-26T10:47:16;99436.56;;;12.50;62.55
10064;BME280;5071;52.360;13.134;2024-02-26T10:52:19;99429.75;;;12.42;63.00
10064;BME280;5071;52.360;13.134;2024-02-26T10:57:23;99423.69;;;13.43;60.35
10064;BME280;5071;52.360;13.134;2024-02-26T11:02:27;99433.94;;;13.52;60.50
10064;BME280;5071;52.360;13.134;2024-02-26T11:07:30;99437.38;;;12.52;62.14
10064;BME280;5071;52.360;13.134;2024-02-26T11:12:35;99434.97;;;12.45;60.65
10064;BME280;5071;52.360;13.134;2024-02-26T11:17:38;99431.88;;;12.34;62.01
10064;BME280;5071;52.360;13.134;2024-02-26T11:22:40;99433.63;;;12.13;62.28
10064;BME280;5071;52.360;13.134;2024-02-26T11:27:49;99431.13;;;12.09;60.30
10064;BME280;5071;52.360;13.134;2024-02-26T11:32:52;99435.09;;;12.20;61.40
10064;BME280;5071;52.360;13.134;2024-02-26T11:37:55;99437.03;;;12.39;61.13
10064;BME280;5071;52.360;13.134;2024-02-26T11:42:59;99424.31;;;12.23;61.13
10064;BME280;5071;52.360;13.134;2024-02-26T11:48:02;99423.84;;;12.14;61.71
10064;BME280;5071;52.360;13.134;2024-02-26T11:53:22;99425.38;;;12.41;59.10
10064;BME280;5071;52.360;13.134;2024-02-26T11:58:31;99435.72;;;12.05;59.21
10064;BME280;5071;52.360;13.134;2024-02-26T12:03:33;99427.81;;;12.03;58.65
10064;BME280;5071;52.360;13.134;2024-02-26T12:08:35;99427.06;;;12.22;58.73
10064;BME280;5071;52.360;13.134;2024-02-26T12:13:41;99421.56;;;12.69;57.06
10064;BME280;5071;52.360;13.134;2024-02-26T12:18:44;99427.63;;;12.30;57.88
10064;BME280;5071;52.360;13.134;2024-02-26T12:23:48;99433.84;;;12.29;57.22
10064;BME280;5071;52.360;13.134;2024-02-26T12:28:52;99432.47;;;12.63;55.60
10064;BME280;5071;52.360;13.134;2024-02-26T12:33:54;99446.84;;;12.59;56.64
10064;BME280;5071;52.360;13.134;2024-02-26T12:38:57;99447.09;;;12.53;54.46
10064;BME280;5071;52.360;13.134;2024-02-26T12:44:00;99440.59;;;12.60;55.20
10064;BME280;5071;52.360;13.134;2024-02-26T12:49:03;99443.16;;;12.19;55.18
10064;BME280;5071;52.360;13.134;2024-02-26T12:54:05;99432.13;;;12.28;57.54
10064;BME280;5071;52.360;13.134;2024-02-26T12:59:09;99433.41;;;12.18;57.20
10064;BME280;5071;52.360;13.134;2024-02-26T13:04:11;99433.69;;;11.88;57.00
10064;BME280;5071;52.360;13.134;2024-02-26T13:09:14;99432.94;;;11.84;57.76
10064;BME280;5071;52.360;13.134;2024-02-26T13:14:20;99433.41;;;11.72;58.08
10064;BME280;5071;52.360;13.134;2024-02-26T13:19:22;99442.59;;;11.87;56.37
10064;BME280;5071;52.360;13.134;2024-02-26T13:24:24;99443.38;;;11.89;55.43
10064;BME280;5071;52.360;13.134;2024-02-26T13:29:28;99438.91;;;11.91;57.43
10064;BME280;5071;52.360;13.134;2024-02-26T13:34:30;99443.69;;;11.81;54.59
10064;BME280;5071;52.360;13.134;2024-02-26T13:39:31;99444.78;;;11.76;55.29
10064;BME280;5071;52.360;13.134;2024-02-26T13:44:35;99439.81;;;11.66;55.01
10064;BME280;5071;52.360;13.134;2024-02-26T13:49:37;99447.50;;;11.74;56.42
10064;BME280;5071;52.360;13.134;2024-02-26T13:54:39;99457.34;;;11.96;55.32
10064;BME280;5071;52.360;13.134;2024-02-26T13:59:45;99456.78;;;11.86;55.30
10064;BME280;5071;52.360;13.134;2024-02-26T14:04:47;99477.94;;;11.89;57.63
10064;BME280;5071;52.360;13.134;2024-02-26T14:09:50;99477.94;;;11.89;57.77
10064;BME280;5071;52.360;13.134;2024-02-26T14:14:53;99491.31;;;11.87;55.90
10064;BME280;5071;52.360;13.134;2024-02-26T14:19:56;99507.25;;;11.64;54.56
10064;BME280;5071;52.360;13.134;2024-02-26T14:24:58;99506.22;;;11.68;55.55
10064;BME280;5071;52.360;13.134;2024-02-26T14:30:01;99515.34;;;11.61;55.93
10064;BME280;5071;52.360;13.134;2024-02-26T14:35:05;99510.09;;;11.34;56.70
10064;BME280;5071;52.360;13.134;2024-02-26T14:40:08;99521.03;;;11.50;57.41
10064;BME280;5071;52.360;13.134;2024-02-26T14:45:12;99519.50;;;11.43;57.41
10064;BME280;5071;52.360;13.134;2024-02-26T14:50:14;99515.91;;;11.45;57.74
10064;BME280;5071;52.360;13.134;2024-02-26T14:55:16;99532.47;;;11.27;57.32
10064;BME280;5071;52.360;13.134;2024-02-26T15:00:20;99532.53;;;11.25;57.90
10064;BME280;5071;52.360;13.134;2024-02-26T15:05:22;99534.38;;;11.23;58.80
10064;BME280;5071;52.360;13.134;2024-02-26T15:10:24;99541.56;;;11.20;60.19
10064;BME280;5071;52.360;13.134;2024-02-26T15:15:28;99529.53;;;11.09;59.61
10064;BME280;5071;52.360;13.134;2024-02-26T15:20:30;99542.88;;;11.08;61.10
10064;BME280;5071;52.360;13.134;2024-02-26T15:25:32;99551.47;;;10.88;60.55
10064;BME280;5071;52.360;13.134;2024-02-26T15:30:35;99555.22;;;10.82;62.37
10064;BME280;5071;52.360;13.134;2024-02-26T15:35:40;99556.97;;;10.83;61.88
10064;BME280;5071;52.360;13.134;2024-02-26T15:40:42;99565.22;;;10.74;62.00
10064;BME280;5071;52.360;13.134;2024-02-26T15:45:47;99564.69;;;10.63;62.96
10064;BME280;5071;52.360;13.134;2024-02-26T15:50:50;99565.78;;;10.56;63.34
10064;BME280;5071;52.360;13.134;2024-02-26T15:55:52;99563.75;;;10.36;65.26
10064;BME280;5071;52.360;13.134;2024-02-26T16:00:56;99571.84;;;10.31;65.93
10064;BME280;5071;52.360;13.134;2024-02-26T16:06:15;99579.03;;;10.26;65.15
10064;BME280;5071;52.360;13.134;2024-02-26T16:11:21;99577.41;;;10.22;65.60
10064;BME280;5071;52.360;13.134;2024-02-26T16:16:29;99595.50;;;10.07;66.76
10064;BME280;5071;52.360;13.134;2024-02-26T16:21:34;99604.25;;;10.09;65.35
10064;BME280;5071;52.360;13.134;2024-02-26T16:26:36;99607.28;;;9.97;66.70
10064;BME280;5071;52.360;13.134;2024-02-26T16:31:40;99620.66;;;9.92;67.99
10064;BME280;5071;52.360;13.134;2024-02-26T16:36:42;99619.44;;;9.73;68.65
10064;BME280;5071;52.360;13.134;2024-02-26T16:41:46;99625.03;;;9.61;69.91
10064;BME280;5071;52.360;13.134;2024-02-26T16:46:50;99633.28;;;9.50;70.56
10064;BME280;5071;52.360;13.134;2024-02-26T16:51:54;99634.13;;;9.52;70.31
10064;BME280;5071;52.360;13.134;2024-02-26T16:56:56;99625.47;;;9.44;71.45
10064;BME280;5071;52.360;13.134;2024-02-26T17:02:00;99636.31;;;9.34;71.96
10064;BME280;5071;52.360;13.134;2024-02-26T17:07:02;99643.28;;;9.39;72.53
10064;BME280;5071;52.360;13.134;2024-02-26T17:12:05;99659.19;;;9.39;73.10
10064;BME280;5071;52.360;13.134;2024-02-26T17:17:09;99659.09;;;9.42;73.87
10064;BME280;5071;52.360;13.134;2024-02-26T17:22:11;99657.59;;;9.31;73.78
10064;BME280;5071;52.360;13.134;2024-02-26T17:27:13;99661.91;;;9.36;73.95
10064;BME280;5071;52.360;13.134;2024-02-26T17:32:16;99674.78;;;9.13;75.61
10064;BME280;5071;52.360;13.134;2024-02-26T17:37:18;99692.19;;;9.24;75.81
10064;BME280;5071;52.360;13.134;2024-02-26T17:42:21;99714.13;;;9.29;75.17
10064;BME280;5071;52.360;13.134;2024-02-26T17:47:24;99724.22;;;9.13;76.94
10064;BME280;5071;52.360;13.134;2024-02-26T17:52:26;99740.44;;;8.98;77.65
10064;BME280;5071;52.360;13.134;2024-02-26T17:57:28;99737.38;;;8.75;80.27
10064;BME280;5071;52.360;13.134;2024-02-26T18:02:32;99738.63;;;9.00;80.14
10064;BME280;5071;52.360;13.134;2024-02-26T18:07:35;99753.94;;;8.85;81.21
10064;BME280;5071;52.360;13.134;2024-02-26T18:12:37;99757.22;;;8.97;81.52
10064;BME280;5071;52.360;13.134;2024-02-26T18:17:41;99761.69;;;8.94;82.13
10064;BME280;5071;52.360;13.134;2024-02-26T18:22:43;99772.25;;;8.96;81.77
10064;BME280;5071;52.360;13.134;2024-02-26T18:27:45;99783.78;;;8.92;81.57
10064;BME280;5071;52.360;13.134;2024-02-26T18:32:48;99788.19;;;8.91;81.98
10064;BME280;5071;52.360;13.134;2024-02-26T18:37:53;99790.28;;;8.77;82.58
10064;BME280;5071;52.360;13.134;2024-02-26T18:42:55;99796.44;;;8.76;83.31
10064;BME280;5071;52.360;13.134;2024-02-26T18:47:58;99789.00;;;8.51;83.64
10064;BME280;5071;52.360;13.134;2024-02-26T18:53:01;99788.28;;;8.43;85.73
10064;BME280;5071;52.360;13.134;2024-02-26T18:58:03;99786.31;;;8.54;85.06
10064;BME280;5071;52.360;13.134;2024-02-26T19:03:06;99787.44;;;8.40;85.10
10064;BME280;5071;52.360;13.134;2024-02-26T19:08:09;99790.53;;;8.16;86.43
10064;BME280;5071;52.360;13.134;2024-02-26T19:13:11;99794.84;;;8.21;86.00
10064;BME280;5071;52.360;13.134;2024-02-26T19:18:14;99793.28;;;8.09;87.39
10064;BME280;5071;52.360;13.134;2024-02-26T19:23:16;99787.94;;;8.12;86.58
10064;BME280;5071;52.360;13.134;2024-02-26T19:28:18;99790.75;;;8.01;86.44
10064;BME280;5071;52.360;13.134;2024-02-26T19:33:22;99807.00;;;7.79;87.96
10064;BME280;5071;52.360;13.134;2024-02-26T19:38:24;99821.28;;;7.66;89.11
10064;BME280;5071;52.360;13.134;2024-02-26T19:43:26;99817.59;;;7.76;88.40
10064;BME280;5071;52.360;13.134;2024-02-26T19:48:31;99814.38;;;7.56;88.06
10064;BME280;5071;52.360;13.134;2024-02-26T19:53:33;99827.09;;;7.29;89.74
10064;BME280;5071;52.360;13.134;2024-02-26T19:58:35;99836.66;;;7.38;88.81
10064;BME280;5071;52.360;13.134;2024-02-26T20:03:38;99837.13;;;7.04;90.17
10064;BME280;5071;52.360;13.134;2024-02-26T20:08:40;99845.06;;;7.03;90.66
10064;BME280;5071;52.360;13.134;2024-02-26T20:13:42;99857.50;;;6.91;90.45
10064;BME280;5071;52.360;13.134;2024-02-26T20:18:46;99869.13;;;6.72;92.09
10064;BME280;5071;52.360;13.134;2024-02-26T20:23:48;99867.41;;;6.69;91.13
10064;BME280;5071;52.360;13.134;2024-02-26T20:28:50;99873.53;;;6.70;91.23
10064;BME280;5071;52.360;13.134;2024-02-26T20:33:53;99869.03;;;6.81;90.21
10064;BME280;5071;52.360;13.134;2024-02-26T20:38:55;99881.34;;;6.80;90.62
10064;BME280;5071;52.360;13.134;2024-02-26T20:43:57;99885.84;;;6.74;90.65
10064;BME280;5071;52.360;13.134;2024-02-26T20:49:01;99890.16;;;6.79;89.90
10064;BME280;5071;52.360;13.134;2024-02-26T20:54:03;99886.47;;;6.94;89.49
10064;BME280;5071;52.360;13.134;2024-02-26T20:59:05;99901.59;;;6.80;89.48
10064;BME280;5071;52.360;13.134;2024-02-26T21:04:09;99906.88;;;6.80;89.65
10064;BME280;5071;52.360;13.134;2024-02-26T21:09:12;99913.94;;;6.73;88.89
10064;BME280;5071;52.360;13.134;2024-02-26T21:14:14;99914.03;;;6.67;88.96
10064;BME280;5071;52.360;13.134;2024-02-26T21:19:17;99917.66;;;6.55;88.94
10064;BME280;5071;52.360;13.134;2024-02-26T21:24:19;99930.06;;;6.41;89.89
10064;BME280;5071;52.360;13.134;2024-02-26T21:29:21;99923.16;;;6.28;90.76
10064;BME280;5071;52.360;13.134;2024-02-26T21:34:25;99941.78;;;6.03;91.70
10064;BME280;5071;52.360;13.134;2024-02-26T21:39:27;99933.78;;;6.17;91.10
10064;BME280;5071;52.360;13.134;2024-02-26T21:44:29;99947.78;;;6.23;89.96
10064;BME280;5071;52.360;13.134;2024-02-26T21:49:33;99951.47;;;5.98;91.21
10064;BME280;5071;52.360;13.134;2024-02-26T21:54:35;99953.22;;;5.94;91.39
10064;BME280;5071;52.360;13.134;2024-02-26T21:59:38;99962.91;;;5.91;91.42
10064;BME280;5071;52.360;13.134;2024-02-26T22:04:41;99963.84;;;5.80;92.00
10064;BME280;5071;52.360;13.134;2024-02-26T22:09:44;99966.53;;;5.71;91.93
10064;BME280;5071;52.360;13.134;2024-02-26T22:14:46;99971.75;;;5.79;92.57
10064;BME280;5071;52.360;13.134;2024-02-26T22:19:50;99981.47;;;5.64;93.18
10064;BME280;5071;52.360;13.134;2024-02-26T22:24:52;99970.09;;;5.52;94.80
10064;BME280;5071;52.360;13.134;2024-02-26T22:29:54;99985.91;;;5.55;94.37
10064;BME280;5071;52.360;13.134;2024-02-26T22:34:57;99985.94;;;5.49;94.93
10064;BME280;5071;52.360;13.134;2024-02-26T22:40:00;99982.38;;;5.57;94.14
10064;BME280;5071;52.360;13.134;2024-02-26T22:45:02;99981.50;;;5.57;94.15
10064;BME280;5071;52.360;13.134;2024-02-26T22:50:08;99972.75;;;5.55;93.87
10064;BME280;5071;52.360;13.134;2024-02-26T22:55:11;99985.97;;;5.35;94.77
10064;BME280;5071;52.360;13.134;2024-02-26T23:00:15;99991.28;;;5.24;95.96
10064;BME280;5071;52.360;13.134;2024-02-26T23:05:21;99993.03;;;5.14;96.08
10064;BME280;5071;52.360;13.134;2024-02-26T23:10:23;99989.50;;;5.23;95.54
10064;BME280;5071;52.360;13.134;2024-02-26T23:15:26;99990.44;;;5.03;96.74
10064;BME280;5071;52.360;13.134;2024-02-26T23:20:30;99997.38;;;5.29;95.72
10064;BME280;5071;52.360;13.134;2024-02-26T23:25:32;99986.88;;;5.23;95.69
10064;BME280;5071;52.360;13.134;2024-02-26T23:30:34;100007.94;;;5.23;96.45
10064;BME280;5071;52.360;13.134;2024-02-26T23:35:37;100007.09;;;5.16;96.62
10064;BME280;5071;52.360;13.134;2024-02-26T23:40:39;100005.31;;;5.26;96.16
10064;BME280;5071;52.360;13.134;2024-02-26T23:45:41;100002.69;;;5.17;96.26
10064;BME280;5071;52.360;13.134;2024-02-26T23:50:45;100021.09;;;5.23;96.77
10064;BME280;5071;52.360;13.134;2024-02-26T23:55:47;100020.25;;;5.05;96.65
